Time;durP1;ratioP1;P1;durP2;ratioP2;P2;SDS_P1;SDS_P2;PMS_P1;PMS_P2;Temp;Humidity;BMP_temperature;BMP_pressure;BME280_temperature;BME280_humidity;BME280_pressure;Samples;Min_cycle;Max_cycle;Signal;HPM_P1;HPM_P2
2023/08/08 00:00:51;;;;;;;21.25;4.07;;;28.10;99.90;;;;;;5004686;23;20050;-48
2023/08/08 00:03:16;;;;;;;17.55;4.15;;;28.10;99.90;;;;;;4992613;28;20540;-48
2023/08/08 00:05:42;;;;;;;19.88;4.88;;;28.10;99.90;;;;;;4992480;28;20036;-49
2023/08/08 00:08:08;;;;;;;22.02;5.13;;;28.10;99.90;;;;;;4992585;28;20054;-48
2023/08/08 00:10:34;;;;;;;21.45;5.72;;;28.10;99.90;;;;;;4992455;28;20072;-48
2023/08/08 00:12:59;;;;;;;16.38;4.50;;;28.00;99.90;;;;;;4992546;28;20105;-49
2023/08/08 00:15:25;;;;;;;19.52;4.30;;;28.00;99.90;;;;;;4992445;28;20029;-49
2023/08/08 00:17:51;;;;;;;17.05;4.50;;;28.10;99.90;;;;;;4992532;28;20014;-49
2023/08/08 00:20:17;;;;;;;20.50;4.63;;;28.10;99.90;;;;;;4992640;28;20033;-49
2023/08/08 00:22:43;;;;;;;28.40;4.63;;;28.00;99.90;;;;;;4992435;28;20053;-49
2023/08/08 00:25:08;;;;;;;17.38;4.28;;;28.10;99.90;;;;;;4991022;28;20031;-48
2023/08/08 00:27:34;;;;;;;16.45;4.45;;;28.00;99.90;;;;;;4996107;28;20057;-49
2023/08/08 00:30:01;;;;;;;18.23;4.32;;;28.00;99.90;;;;;;4996086;28;20049;-48
2023/08/08 00:32:27;;;;;;;22.47;5.73;;;28.00;99.90;;;;;;4995993;28;20485;-49
2023/08/08 00:34:52;;;;;;;18.17;5.43;;;28.00;99.90;;;;;;4995747;28;20030;-50
2023/08/08 00:37:18;;;;;;;16.92;4.88;;;28.00;99.90;;;;;;4996342;28;20025;-48
2023/08/08 00:39:45;;;;;;;21.67;5.38;;;28.00;99.90;;;;;;4995980;28;20077;-48
2023/08/08 00:42:14;;;;;;;;;;;28.00;99.90;;;;;;4996200;28;20805;-48
2023/08/08 00:44:40;;;;;;;19.10;4.57;;;27.90;99.90;;;;;;4978310;28;19936;-48
2023/08/08 00:47:10;;;;;;;19.93;5.30;;;27.90;99.90;;;;;;4995687;28;20085;-48
2023/08/08 00:49:36;;;;;;;20.20;4.63;;;27.90;99.90;;;;;;4995581;28;20026;-49
2023/08/08 00:52:02;;;;;;;19.85;4.00;;;27.90;99.90;;;;;;4995681;28;20026;-48
2023/08/08 00:54:28;;;;;;;19.45;4.22;;;27.80;99.90;;;;;;4995779;28;20022;-48
2023/08/08 00:56:54;;;;;;;21.52;4.32;;;27.80;99.90;;;;;;4995464;28;20019;-48
2023/08/08 00:59:21;;;;;;;16.83;4.47;;;27.80;99.90;;;;;;4995553;28;20042;-48
2023/08/08 01:01:47;;;;;;;20.37;4.77;;;27.80;99.90;;;;;;4995831;28;20166;-48
2023/08/08 01:04:13;;;;;;;16.88;4.57;;;27.80;99.90;;;;;;4995155;28;20334;-48
2023/08/08 01:06:51;;;;;;;14.63;4.30;;;27.80;99.90;;;;;;4994040;28;20115;-48
2023/08/08 01:09:23;;;;;;;26.45;5.07;;;27.80;99.90;;;;;;4993987;28;20022;-48
2023/08/08 01:11:50;;;;;;;21.75;4.40;;;27.80;99.90;;;;;;4994142;28;20053;-48
2023/08/08 01:14:17;;;;;;;22.77;5.13;;;27.70;99.90;;;;;;4995422;28;20169;-48
2023/08/08 01:16:43;;;;;;;19.08;4.60;;;27.70;99.90;;;;;;4995203;28;20045;-48
2023/08/08 01:19:14;;;;;;;14.88;3.83;;;27.70;99.90;;;;;;4993776;28;20065;-47
2023/08/08 01:21:43;;;;;;;16.58;3.88;;;27.70;99.90;;;;;;4995042;28;20446;-49
2023/08/08 01:24:21;;;;;;;18.30;4.68;;;27.70;99.90;;;;;;4995007;28;20022;-48
2023/08/08 01:26:47;;;;;;;23.75;4.97;;;27.70;99.90;;;;;;4994955;28;20433;-49
2023/08/08 01:29:13;;;;;;;24.08;5.20;;;27.70;99.90;;;;;;4994995;28;20038;-48
2023/08/08 01:31:39;;;;;;;17.33;4.78;;;27.70;99.90;;;;;;4994964;28;20517;-49
2023/08/08 01:34:05;;;;;;;21.05;5.05;;;27.70;99.90;;;;;;4994853;28;20030;-48
2023/08/08 01:36:49;;;;;;;17.95;4.57;;;27.60;99.90;;;;;;4993027;28;20023;-50
2023/08/08 01:39:20;;;;;;;20.25;4.50;;;27.70;99.90;;;;;;4994637;28;20027;-48
2023/08/08 01:41:48;;;;;;;23.30;4.68;;;27.70;99.90;;;;;;4994762;28;20080;-48
2023/08/08 01:44:14;;;;;;;15.80;4.18;;;27.70;99.90;;;;;;4994726;28;20069;-49
2023/08/08 01:46:40;;;;;;;15.05;4.97;;;27.70;99.90;;;;;;4994653;28;20030;-49
2023/08/08 01:49:06;;;;;;;20.65;4.53;;;27.60;99.90;;;;;;4994742;28;20022;-48
2023/08/08 01:51:31;;;;;;;24.98;4.72;;;27.60;99.90;;;;;;4994557;28;20109;-48
2023/08/08 01:53:57;;;;;;;23.25;5.07;;;27.60;99.90;;;;;;4994533;28;20026;-48
2023/08/08 01:56:23;;;;;;;17.75;5.22;;;27.60;99.90;;;;;;4994715;28;20022;-48
2023/08/08 01:58:49;;;;;;;24.45;5.85;;;27.60;99.90;;;;;;4994406;28;20027;-49
2023/08/08 02:01:14;;;;;;;25.25;6.45;;;27.60;99.90;;;;;;4994788;28;20046;-48
2023/08/08 02:03:40;;;;;;;30.35;5.03;;;27.60;99.90;;;;;;4994392;28;20058;-49
2023/08/08 02:06:06;;;;;;;19.48;4.78;;;27.60;99.90;;;;;;4992975;28;20034;-49
2023/08/08 02:08:31;;;;;;;29.52;5.32;;;27.60;99.90;;;;;;4994114;28;20026;-48
2023/08/08 02:10:57;;;;;;;19.08;3.92;;;27.60;99.90;;;;;;4994205;28;20072;-48
2023/08/08 02:13:23;;;;;;;36.08;5.65;;;27.60;99.90;;;;;;4994264;28;20116;-48
2023/08/08 02:15:49;;;;;;;22.98;5.05;;;27.60;99.90;;;;;;4992923;28;20046;-49
2023/08/08 02:18:14;;;;;;;22.83;4.93;;;27.60;99.90;;;;;;4994006;28;20483;-48
2023/08/08 02:20:40;;;;;;;29.50;4.88;;;27.60;99.90;;;;;;4992702;28;20030;-48
2023/08/08 02:23:06;;;;;;;32.70;5.78;;;27.50;99.90;;;;;;4992614;28;20496;-48
2023/08/08 02:25:32;;;;;;;23.42;5.20;;;27.50;99.90;;;;;;4993913;28;20042;-48
2023/08/08 02:27:58;;;;;;;18.38;4.32;;;27.50;99.90;;;;;;4994217;28;20643;-48
2023/08/08 02:30:23;;;;;;;21.00;4.47;;;27.50;99.90;;;;;;4994073;28;20053;-48
2023/08/08 02:32:49;;;;;;;24.30;4.82;;;27.50;99.90;;;;;;4993773;28;20485;-48
2023/08/08 02:35:15;;;;;;;23.42;4.72;;;27.50;99.90;;;;;;4993810;28;20033;-48
2023/08/08 02:37:41;;;;;;;22.45;5.38;;;27.50;99.90;;;;;;4993720;28;20034;-48
2023/08/08 02:40:07;;;;;;;19.73;4.72;;;27.50;99.90;;;;;;4993779;28;20026;-47
2023/08/08 02:42:33;;;;;;;29.00;5.18;;;27.50;99.90;;;;;;4993710;28;20053;-48
2023/08/08 02:44:59;;;;;;;20.60;4.30;;;27.50;99.90;;;;;;4993677;28;20479;-48
2023/08/08 02:47:25;;;;;;;22.65;4.53;;;27.50;99.90;;;;;;4993746;28;20038;-47
2023/08/08 02:49:50;;;;;;;22.70;4.07;;;27.50;99.90;;;;;;4993219;28;20053;-47
2023/08/08 02:52:16;;;;;;;27.48;4.70;;;27.40;99.90;;;;;;4993336;28;20026;-48
2023/08/08 02:54:42;;;;;;;27.13;4.63;;;27.40;99.90;;;;;;4993486;28;20035;-48
2023/08/08 02:57:10;;;;;;;24.25;4.97;;;27.40;99.90;;;;;;4993403;28;20034;-48
2023/08/08 02:59:36;;;;;;;20.40;4.95;;;27.40;99.90;;;;;;4993430;28;20027;-48
2023/08/08 03:02:03;;;;;;;23.08;4.97;;;27.40;99.90;;;;;;4993879;28;20162;-48
2023/08/08 03:04:29;;;;;;;19.42;4.95;;;27.40;99.90;;;;;;4993366;28;20074;-48
2023/08/08 03:06:55;;;;;;;21.58;4.75;;;27.40;99.90;;;;;;4993157;28;20329;-48
2023/08/08 03:09:22;;;;;;;31.77;5.93;;;27.30;99.90;;;;;;4993043;28;20494;-47
2023/08/08 03:11:47;;;;;;;25.40;5.38;;;27.40;99.90;;;;;;4992881;28;20467;-48
2023/08/08 03:14:13;;;;;;;22.40;4.97;;;27.40;99.90;;;;;;4992978;28;20034;-48
2023/08/08 03:16:39;;;;;;;20.92;4.43;;;27.40;99.90;;;;;;4993232;28;20033;-47
2023/08/08 03:19:05;;;;;;;23.13;5.47;;;27.30;99.90;;;;;;4993262;28;20425;-47
2023/08/08 03:21:31;;;;;;;22.20;4.47;;;27.30;99.90;;;;;;4993221;28;20026;-48
2023/08/08 03:23:57;;;;;;;19.95;5.78;;;27.30;99.90;;;;;;4991811;28;20113;-48
2023/08/08 03:26:23;;;;;;;23.85;4.07;;;27.30;99.90;;;;;;4991651;28;20516;-48
2023/08/08 03:28:50;;;;;;;24.17;5.10;;;27.30;99.90;;;;;;4992821;28;20033;-49
2023/08/08 03:31:17;;;;;;;25.40;6.32;;;27.30;99.90;;;;;;4992892;28;20025;-48
2023/08/08 03:33:43;;;;;;;26.90;5.90;;;27.30;99.90;;;;;;4991596;28;20026;-49
2023/08/08 03:36:09;;;;;;;20.60;5.25;;;27.30;99.90;;;;;;4992681;28;20026;-48
2023/08/08 03:38:37;;;;;;;27.30;5.20;;;27.30;99.90;;;;;;4992917;28;20042;-47
2023/08/08 03:41:04;;;;;;;22.52;4.65;;;27.40;99.90;;;;;;4992777;28;20022;-46
2023/08/08 03:43:30;;;;;;;22.75;5.10;;;27.40;99.90;;;;;;4992981;28;20053;-47
2023/08/08 03:45:55;;;;;;;29.58;5.60;;;27.50;99.90;;;;;;4992578;28;20088;-48
2023/08/08 03:48:21;;;;;;;18.15;4.70;;;27.50;99.90;;;;;;4992809;28;20088;-47
2023/08/08 03:50:47;;;;;;;29.40;5.43;;;27.50;99.90;;;;;;5001858;28;20520;-48
2023/08/08 03:53:13;;;;;;;36.78;5.07;;;27.60;99.90;;;;;;5011119;28;20022;-47
2023/08/08 03:55:39;;;;;;;18.70;4.05;;;27.60;99.90;;;;;;5012230;28;20033;-48
2023/08/08 03:58:05;;;;;;;22.05;4.25;;;27.60;99.90;;;;;;5012294;28;20474;-48
2023/08/08 04:00:34;;;;;;;26.48;5.50;;;27.70;99.90;;;;;;4981119;28;20569;-47
2023/08/08 04:03:00;;;;;;;25.73;5.43;;;27.70;99.90;;;;;;4975682;28;20038;-48
2023/08/08 04:05:25;;;;;;;33.72;5.53;;;27.70;99.90;;;;;;4976107;28;20035;-48
2023/08/08 04:07:51;;;;;;;21.30;4.38;;;27.80;99.90;;;;;;4976474;28;20030;-47
2023/08/08 04:10:17;;;;;;;23.42;4.53;;;27.70;99.90;;;;;;4974985;28;20031;-47
2023/08/08 04:12:43;;;;;;;24.13;4.85;;;27.80;99.90;;;;;;4976107;28;20142;-48
2023/08/08 04:15:09;;;;;;;18.95;4.88;;;27.80;99.90;;;;;;4959532;28;20503;-48
2023/08/08 04:17:35;;;;;;;21.92;4.32;;;27.80;99.90;;;;;;4977040;28;20160;-48
2023/08/08 04:20:01;;;;;;;16.13;3.88;;;27.80;99.90;;;;;;4976234;28;20062;-48
2023/08/08 04:22:26;;;;;;;19.95;4.38;;;27.90;99.90;;;;;;4976810;28;20077;-48
2023/08/08 04:24:52;;;;;;;19.38;4.80;;;27.90;99.90;;;;;;4976698;28;20438;-47
2023/08/08 04:27:18;;;;;;;26.55;5.07;;;27.90;99.90;;;;;;4976358;28;20037;-48
2023/08/08 04:29:44;;;;;;;20.70;4.65;;;27.90;99.90;;;;;;4975722;28;20093;-48
2023/08/08 04:32:09;;;;;;;20.20;4.93;;;27.90;99.90;;;;;;4976680;28;20101;-48
2023/08/08 04:34:35;;;;;;;19.52;4.40;;;28.00;99.90;;;;;;4976481;28;20070;-48
2023/08/08 04:37:01;;;;;;;20.75;4.28;;;28.00;99.90;;;;;;4993389;28;20347;-48
2023/08/08 04:39:27;;;;;;;21.83;4.40;;;27.90;99.90;;;;;;4995466;28;20475;-49
2023/08/08 04:41:52;;;;;;;20.52;4.50;;;28.00;99.90;;;;;;4993353;28;20073;-49
2023/08/08 04:44:18;;;;;;;19.10;4.85;;;28.00;99.90;;;;;;4994635;28;20052;-49
2023/08/08 04:46:44;;;;;;;24.73;4.45;;;27.90;99.90;;;;;;4994927;28;20030;-48
2023/08/08 04:49:09;;;;;;;14.30;4.70;;;28.00;99.90;;;;;;4995741;28;20078;-48
2023/08/08 04:51:35;;;;;;;18.10;4.35;;;28.00;99.90;;;;;;4995813;28;20026;-47
2023/08/08 04:54:01;;;;;;;22.27;4.78;;;28.00;99.90;;;;;;4992544;28;20026;-47
2023/08/08 04:56:28;;;;;;;19.90;3.67;;;28.00;99.90;;;;;;4994074;28;20022;-46
2023/08/08 04:58:53;;;;;;;16.08;4.60;;;28.00;99.90;;;;;;4994251;28;20019;-47
2023/08/08 05:01:20;;;;;;;22.83;4.82;;;28.00;99.90;;;;;;4995411;28;20116;-45
2023/08/08 05:03:46;;;;;;;24.00;4.68;;;28.00;99.90;;;;;;4978421;28;20066;-46
2023/08/08 05:06:12;;;;;;;28.85;6.00;;;28.00;99.90;;;;;;4974124;28;20458;-46
2023/08/08 05:08:37;;;;;;;24.25;4.60;;;28.00;99.90;;;;;;4973927;28;20062;-45
2023/08/08 05:11:03;;;;;;;21.23;4.88;;;28.00;99.90;;;;;;4976316;28;20077;-45
2023/08/08 05:13:29;;;;;;;18.20;4.78;;;28.00;99.90;;;;;;4974901;28;20498;-47
2023/08/08 05:15:55;;;;;;;22.45;4.70;;;28.00;99.90;;;;;;4974505;28;20022;-47
2023/08/08 05:18:20;;;;;;;21.42;4.43;;;28.00;99.90;;;;;;4974175;28;20355;-47
2023/08/08 05:20:46;;;;;;;25.02;4.57;;;28.00;99.90;;;;;;4983674;28;20418;-46
2023/08/08 05:23:12;;;;;;;16.40;4.63;;;28.00;99.90;;;;;;4994868;28;20025;-46
2023/08/08 05:25:38;;;;;;;17.23;5.50;;;27.90;99.90;;;;;;4993987;28;20409;-47
2023/08/08 05:28:04;;;;;;;26.83;5.15;;;28.00;99.90;;;;;;4994981;28;20041;-47
2023/08/08 05:30:29;;;;;;;20.02;4.25;;;28.00;99.90;;;;;;4979617;28;20495;-46
2023/08/08 05:32:55;;;;;;;20.08;4.43;;;27.90;99.90;;;;;;4975254;28;20070;-46
2023/08/08 05:35:21;;;;;;;14.43;3.75;;;27.90;99.90;;;;;;4973190;28;20070;-45
2023/08/08 05:37:47;;;;;;;21.98;5.00;;;27.90;99.90;;;;;;4957965;28;20113;-46
2023/08/08 05:40:12;;;;;;;19.27;4.97;;;27.90;99.90;;;;;;4993928;28;20475;-46
2023/08/08 05:42:39;;;;;;;18.77;4.80;;;27.90;99.90;;;;;;4994873;28;20431;-47
2023/08/08 05:45:05;;;;;;;22.55;5.07;;;28.00;99.90;;;;;;4994452;28;20042;-47
2023/08/08 05:47:32;;;;;;;25.30;4.70;;;28.00;99.90;;;;;;4993575;28;20034;-47
2023/08/08 05:49:58;;;;;;;19.33;3.72;;;28.00;99.90;;;;;;4993951;28;20542;-46
2023/08/08 05:52:24;;;;;;;16.50;4.45;;;27.90;99.90;;;;;;4994592;28;20076;-46
2023/08/08 05:54:49;;;;;;;20.35;5.35;;;28.00;99.90;;;;;;4993041;28;20162;-47
2023/08/08 05:57:15;;;;;;;22.13;4.90;;;27.90;99.90;;;;;;4981386;28;20034;-46
2023/08/08 05:59:44;;;;;;;17.08;4.43;;;28.00;99.90;;;;;;4974862;28;20021;-46
2023/08/08 06:02:10;;;;;;;22.35;4.07;;;28.00;99.90;;;;;;4974979;28;20129;-46
2023/08/08 06:04:36;;;;;;;20.92;4.60;;;28.00;99.90;;;;;;4974779;28;20599;-46
2023/08/08 06:07:02;;;;;;;24.83;3.85;;;28.00;99.90;;;;;;4973908;28;20042;-47
2023/08/08 06:09:28;;;;;;;22.38;5.00;;;28.00;99.90;;;;;;4974139;28;20026;-47
2023/08/08 06:11:53;;;;;;;21.15;4.13;;;27.90;99.90;;;;;;4972843;28;20169;-47
2023/08/08 06:14:19;;;;;;;23.38;5.10;;;27.90;99.90;;;;;;4975311;28;20189;-47
2023/08/08 06:16:46;;;;;;;22.13;4.60;;;28.00;99.90;;;;;;4973696;28;20030;-48
2023/08/08 06:19:14;;;;;;;19.63;4.47;;;28.00;99.90;;;;;;4974720;28;20109;-47
2023/08/08 06:21:40;;;;;;;20.55;5.68;;;28.00;99.90;;;;;;4974841;28;20479;-47
2023/08/08 06:24:06;;;;;;;23.98;4.95;;;28.00;99.90;;;;;;4974104;28;20035;-47
2023/08/08 06:26:32;;;;;;;27.85;4.93;;;28.00;99.90;;;;;;4974081;28;20089;-47
2023/08/08 06:28:57;;;;;;;23.33;5.38;;;28.00;99.90;;;;;;4974319;28;20030;-47
2023/08/08 06:31:23;;;;;;;23.70;4.25;;;28.00;99.90;;;;;;4974472;28;20043;-46
2023/08/08 06:33:49;;;;;;;27.35;4.47;;;28.00;99.90;;;;;;4984177;28;20027;-47
2023/08/08 06:36:15;;;;;;;20.25;3.80;;;28.00;99.90;;;;;;4974242;28;20025;-48
2023/08/08 06:38:41;;;;;;;17.83;3.58;;;28.00;99.90;;;;;;4974444;28;20038;-47
2023/08/08 06:41:08;;;;;;;20.63;4.68;;;28.00;99.90;;;;;;4975624;28;20078;-47
2023/08/08 06:43:34;;;;;;;23.95;4.55;;;28.00;99.90;;;;;;4992588;28;20426;-47
2023/08/08 06:46:00;;;;;;;21.17;3.80;;;28.10;99.90;;;;;;4993314;28;20543;-47
2023/08/08 06:48:26;;;;;;;17.87;3.53;;;28.00;99.90;;;;;;4993355;28;20057;-48
2023/08/08 06:50:52;;;;;;;26.25;4.03;;;28.00;99.90;;;;;;4985484;28;20054;-48
2023/08/08 06:53:18;;;;;;;13.38;2.53;;;28.10;99.90;;;;;;4973518;28;20051;-48
2023/08/08 06:55:44;;;;;;;13.18;3.20;;;28.10;99.90;;;;;;4974192;28;20027;-47
2023/08/08 06:58:09;;;;;;;19.58;4.18;;;28.10;99.90;;;;;;4974059;28;20026;-47
2023/08/08 07:00:35;;;;;;;13.30;3.17;;;28.10;99.90;;;;;;4973263;28;20395;-48
2023/08/08 07:03:01;;;;;;;16.90;3.30;;;28.10;99.90;;;;;;4973914;28;20027;-47
2023/08/08 07:05:27;;;;;;;12.63;2.63;;;28.10;99.90;;;;;;4973786;28;20039;-47
2023/08/08 07:07:53;;;;;;;21.25;3.13;;;28.20;99.90;;;;;;4973791;28;20030;-47
2023/08/08 07:10:19;;;;;;;17.10;3.67;;;28.20;99.90;;;;;;4992279;28;20026;-48
2023/08/08 07:12:45;;;;;;;11.77;2.28;;;28.20;99.90;;;;;;4993210;28;20018;-47
2023/08/08 07:15:11;;;;;;;14.85;2.33;;;28.20;99.90;;;;;;4993280;28;20540;-47
2023/08/08 07:17:37;;;;;;;19.88;3.35;;;28.20;99.90;;;;;;4992113;28;20096;-47
2023/08/08 07:20:05;;;;;;;16.83;4.03;;;28.30;99.90;;;;;;4992262;28;20038;-48
2023/08/08 07:22:32;;;;;;;18.88;4.05;;;28.30;99.90;;;;;;4992951;28;20026;-47
2023/08/08 07:24:58;;;;;;;20.65;6.32;;;28.30;99.90;;;;;;4992745;28;20093;-46
2023/08/08 07:27:24;;;;;;;16.05;4.13;;;28.30;99.90;;;;;;4991654;28;20053;-47
2023/08/08 07:29:50;;;;;;;11.25;2.67;;;28.40;99.90;;;;;;4991599;28;20026;-46
2023/08/08 07:32:15;;;;;;;17.83;4.43;;;28.40;99.90;;;;;;4991781;28;20023;-46
2023/08/08 07:34:41;;;;;;;11.68;3.28;;;28.40;99.90;;;;;;4990841;28;20018;-46
2023/08/08 07:37:07;;;;;;;16.05;4.20;;;28.40;99.90;;;;;;4992053;28;20121;-46
2023/08/08 07:39:32;;;;;;;21.88;6.53;;;28.40;99.90;;;;;;4992628;28;20061;-46
2023/08/08 07:41:58;;;;;;;20.38;6.50;;;28.40;99.90;;;;;;4991431;28;20118;-46
2023/08/08 07:44:24;;;;;;;13.23;4.22;;;28.50;99.90;;;;;;4992352;28;20573;-47
2023/08/08 07:46:50;;;;;;;17.45;3.33;;;28.50;99.90;;;;;;4991900;28;20080;-46
2023/08/08 07:49:16;;;;;;;11.68;3.83;;;28.50;99.90;;;;;;4992930;28;20061;-47
2023/08/08 07:51:41;;;;;;;21.70;5.65;;;28.60;99.90;;;;;;4992824;28;20045;-47
2023/08/08 07:54:08;;;;;;;18.73;4.32;;;28.60;99.90;;;;;;4992642;28;20025;-50
2023/08/08 07:56:35;;;;;;;16.97;4.23;;;28.60;99.90;;;;;;4992622;28;20094;-48
2023/08/08 07:59:01;;;;;;;15.32;4.95;;;28.60;99.90;;;;;;4992490;28;20275;-47
2023/08/08 08:01:27;;;;;;;19.77;4.40;;;28.60;99.90;;;;;;4992288;28;20062;-47
2023/08/08 08:03:53;;;;;;;15.32;3.85;;;28.60;99.90;;;;;;4992373;28;20026;-48
2023/08/08 08:06:19;;;;;;;21.95;4.00;;;28.60;99.90;;;;;;4992705;28;20394;-48
2023/08/08 08:08:45;;;;;;;22.08;4.85;;;28.60;99.90;;;;;;4991306;28;20026;-48
2023/08/08 08:11:13;;;;;;;20.02;4.97;;;28.60;99.90;;;;;;4992240;28;20058;-48
2023/08/08 08:13:39;;;;;;;18.20;4.72;;;28.60;99.90;;;;;;4992597;28;20097;-50
2023/08/08 08:16:05;;;;;;;15.10;4.90;;;28.60;99.90;;;;;;4992350;28;20069;-47
2023/08/08 08:18:33;;;;;;;15.07;3.83;;;28.70;99.90;;;;;;4992280;28;20062;-47
2023/08/08 08:20:59;;;;;;;20.35;4.57;;;28.60;99.90;;;;;;4992336;28;20106;-48
2023/08/08 08:23:25;;;;;;;16.02;3.55;;;28.60;99.90;;;;;;4992319;28;20038;-47
2023/08/08 08:25:51;;;;;;;13.02;4.38;;;28.60;99.90;;;;;;4992225;28;20034;-47
2023/08/08 08:28:17;;;;;;;15.50;5.85;;;28.70;99.90;;;;;;4992445;28;20030;-48
2023/08/08 08:30:43;;;;;;;17.52;3.78;;;28.70;99.90;;;;;;4992239;28;20041;-48
2023/08/08 08:33:09;;;;;;;15.60;4.18;;;28.70;99.90;;;;;;4992291;28;20434;-48
2023/08/08 08:35:37;;;;;;;17.30;4.40;;;28.70;99.90;;;;;;4992207;28;20430;-48
2023/08/08 08:38:03;;;;;;;15.13;4.85;;;28.60;99.90;;;;;;4992122;28;20436;-48
2023/08/08 08:40:33;;;;;;;13.63;5.13;;;28.60;99.90;;;;;;4992103;28;20379;-48
2023/08/08 08:43:00;;;;;;;19.08;4.85;;;28.60;99.90;;;;;;4992275;28;20019;-48
2023/08/08 08:45:28;;;;;;;21.53;5.33;;;28.70;99.90;;;;;;4991981;28;20038;-47
2023/08/08 08:47:55;;;;;;;17.55;7.82;;;28.70;99.90;;;;;;4994764;28;20685;-48
2023/08/08 08:50:22;;;;;;;18.80;7.65;;;28.70;99.90;;;;;;4995905;28;20026;-47
2023/08/08 08:52:49;;;;;;;25.92;7.05;;;28.70;99.90;;;;;;4995963;28;20065;-48
2023/08/08 08:55:15;;;;;;;18.20;6.10;;;28.70;99.90;;;;;;4995575;28;20033;-48
2023/08/08 08:57:42;;;;;;;21.98;4.63;;;28.70;99.90;;;;;;4995515;28;20256;-46
2023/08/08 09:00:08;;;;;;;11.55;4.20;;;28.80;99.90;;;;;;4995393;28;20033;-47
2023/08/08 09:02:34;;;;;;;19.75;7.07;;;28.80;99.90;;;;;;4995108;28;20491;-46
2023/08/08 09:05:02;;;;;;;13.45;4.47;;;28.90;99.90;;;;;;4995297;28;20046;-47
2023/08/08 09:07:31;;;;;;;30.23;10.82;;;28.90;99.90;;;;;;4995261;28;20022;-47
2023/08/08 09:09:57;;;;;;;21.55;5.97;;;28.90;99.90;;;;;;4995178;28;20046;-45
2023/08/08 09:12:24;;;;;;;18.42;5.15;;;29.00;99.90;;;;;;4995379;28;20061;-46
2023/08/08 09:14:57;;;;;;;13.02;4.85;;;29.00;99.90;;;;;;4995384;28;20029;-47
2023/08/08 09:17:27;;;;;;;17.00;5.38;;;29.00;99.90;;;;;;4995270;28;20038;-50
2023/08/08 09:19:55;;;;;;;22.33;9.05;;;29.10;99.90;;;;;;4995200;28;20214;-47
2023/08/08 09:22:23;;;;;;;17.27;5.65;;;29.10;99.90;;;;;;4995185;28;20073;-47
2023/08/08 09:24:49;;;;;;;19.08;5.30;;;29.10;99.90;;;;;;4995212;28;20027;-47
2023/08/08 09:27:15;;;;;;;13.88;3.80;;;29.20;99.90;;;;;;4995049;28;20045;-47
2023/08/08 09:29:41;;;;;;;20.38;4.80;;;29.20;99.90;;;;;;4995025;28;20072;-48
2023/08/08 09:32:08;;;;;;;20.57;4.60;;;29.20;99.90;;;;;;4993627;28;20068;-49
2023/08/08 09:34:34;;;;;;;17.13;6.27;;;29.20;99.90;;;;;;4994819;28;20022;-47
2023/08/08 09:37:00;;;;;;;15.93;4.82;;;29.20;99.90;;;;;;4994696;28;20500;-48
2023/08/08 09:39:28;;;;;;;16.50;4.80;;;29.20;99.90;;;;;;4994626;28;20030;-45
2023/08/08 09:41:55;;;;;;;;;;;29.20;99.90;;;;;;4995190;28;20556;-47
2023/08/08 09:44:26;;;;;;;17.80;4.15;;;29.20;99.90;;;;;;4994686;28;19912;-47
2023/08/08 09:46:52;;;;;;;16.40;4.65;;;29.20;99.90;;;;;;4994691;28;20064;-46
2023/08/08 09:49:18;;;;;;;15.27;3.63;;;29.20;99.90;;;;;;4992974;28;20475;-47
2023/08/08 09:51:45;;;;;;;14.27;3.67;;;29.30;99.90;;;;;;4994264;28;20038;-47
2023/08/08 09:54:11;;;;;;;18.75;3.85;;;29.20;99.90;;;;;;4994280;28;20026;-47
2023/08/08 09:56:39;;;;;;;16.33;3.95;;;29.20;99.90;;;;;;4994374;28;20058;-47
2023/08/08 09:59:05;;;;;;;;;;;29.30;99.90;;;;;;4993725;28;20022;-47
2023/08/08 10:01:32;;;;;;;20.48;4.85;;;29.30;99.90;;;;;;4994180;28;19917;-46
2023/08/08 10:03:59;;;;;;;15.13;4.60;;;29.20;99.90;;;;;;4994202;28;20030;-47
2023/08/08 10:06:26;;;;;;;18.00;4.18;;;29.30;99.90;;;;;;4994333;28;20045;-47
2023/08/08 10:08:51;;;;;;;19.63;3.70;;;29.20;99.90;;;;;;4994148;28;20098;-47
2023/08/08 10:11:19;;;;;;;15.95;3.85;;;29.20;99.90;;;;;;4993874;28;20105;-46
2023/08/08 10:13:50;;;;;;;14.40;3.80;;;29.20;99.90;;;;;;4994141;28;20030;-46
2023/08/08 10:16:20;;;;;;;16.35;3.85;;;29.30;99.90;;;;;;4993774;28;20098;-47
2023/08/08 10:18:55;;;;;;;12.60;4.60;;;29.30;99.90;;;;;;4993859;28;20029;-47
2023/08/08 10:21:23;;;;;;;18.48;4.75;;;29.30;99.90;;;;;;4993846;28;20110;-47
2023/08/08 10:23:49;;;;;;;14.05;3.55;;;29.30;99.90;;;;;;4993745;28;20106;-47
2023/08/08 10:26:19;;;;;;;14.07;3.38;;;29.30;99.90;;;;;;4993682;28;20057;-47
2023/08/08 10:28:59;;;;;;;14.43;3.80;;;29.30;99.90;;;;;;4993683;28;20395;-47
2023/08/08 10:31:26;;;;;;;16.20;4.07;;;29.30;99.90;;;;;;4994021;28;20026;-47
2023/08/08 10:34:05;;;;;;;13.93;5.33;;;29.30;99.90;;;;;;4993839;28;20026;-48
2023/08/08 10:36:50;;;;;;;9.63;3.05;;;29.40;99.90;;;;;;4993709;28;20022;-47
2023/08/08 10:39:18;;;;;;;19.67;4.60;;;29.40;99.90;;;;;;4992214;28;20109;-47
2023/08/08 10:41:46;;;;;;;17.25;4.03;;;29.40;99.90;;;;;;4993533;28;20336;-46
2023/08/08 10:44:12;;;;;;;16.65;4.45;;;29.40;99.90;;;;;;4993630;28;20026;-48
2023/08/08 10:46:41;;;;;;;19.80;4.53;;;29.50;99.90;;;;;;4993482;28;20181;-47
2023/08/08 10:49:07;;;;;;;19.42;5.40;;;29.40;99.90;;;;;;4993484;28;20018;-46
2023/08/08 10:51:45;;;;;;;21.10;6.97;;;29.40;99.90;;;;;;4993421;28;20082;-46
2023/08/08 10:54:27;;;;;;;17.00;4.38;;;29.50;99.90;;;;;;4993372;28;20065;-45
2023/08/08 10:56:55;;;;;;;19.48;4.82;;;29.50;99.90;;;;;;4993313;28;20441;-45
2023/08/08 10:59:35;;;;;;;15.48;3.40;;;29.50;99.90;;;;;;4993126;28;20026;-45
2023/08/08 11:02:01;;;;;;;17.80;4.30;;;29.50;99.90;;;;;;4991536;28;20225;-45
2023/08/08 11:04:29;;;;;;;17.13;4.25;;;29.40;99.90;;;;;;4993461;28;20109;-46
2023/08/08 11:06:55;;;;;;;13.90;3.58;;;29.40;99.90;;;;;;4993113;28;20088;-46
2023/08/08 11:09:21;;;;;;;21.48;5.85;;;29.40;99.90;;;;;;4992861;28;20031;-45
2023/08/08 11:11:47;;;;;;;17.63;4.95;;;29.40;99.90;;;;;;4992993;28;20026;-45
2023/08/08 11:14:18;;;;;;;16.60;5.25;;;29.40;99.90;;;;;;4992967;28;20034;-45
2023/08/08 11:16:46;;;;;;;20.58;5.38;;;29.40;99.90;;;;;;4992770;28;20022;-45
2023/08/08 11:19:12;;;;;;;23.95;8.20;;;29.40;99.90;;;;;;4992884;28;20101;-46
2023/08/08 11:21:41;;;;;;;21.52;4.88;;;29.40;99.90;;;;;;4991487;28;20478;-45
2023/08/08 11:24:08;;;;;;;19.50;4.30;;;29.40;99.90;;;;;;4992736;28;20030;-45
2023/08/08 11:26:34;;;;;;;14.18;5.95;;;29.40;99.90;;;;;;4992739;28;20129;-45
2023/08/08 11:29:02;;;;;;;14.35;4.03;;;29.40;99.90;;;;;;4992713;28;20026;-45
2023/08/08 11:31:29;;;;;;;12.00;4.47;;;29.40;99.90;;;;;;4992410;28;20505;-46
2023/08/08 11:33:55;;;;;;;19.65;4.18;;;29.50;99.90;;;;;;4992576;28;20030;-46
2023/08/08 11:36:22;;;;;;;14.63;3.83;;;29.50;99.90;;;;;;4992600;28;20023;-45
2023/08/08 11:38:49;;;;;;;17.48;4.07;;;29.50;99.90;;;;;;4992463;28;20026;-45
2023/08/08 11:41:17;;;;;;;9.57;3.50;;;29.50;99.90;;;;;;4992430;28;20073;-45
2023/08/08 11:43:44;;;;;;;13.23;3.80;;;29.50;99.90;;;;;;4993185;28;20058;-46
2023/08/08 11:46:13;;;;;;;;;;;29.50;99.90;;;;;;4993100;28;20513;-45
2023/08/08 11:48:40;;;;;;;16.50;3.83;;;29.50;99.90;;;;;;4992559;28;19949;-46
2023/08/08 11:51:07;;;;;;;17.33;3.58;;;29.50;99.90;;;;;;4992509;28;20109;-46
2023/08/08 11:53:33;;;;;;;15.95;3.40;;;29.50;99.90;;;;;;4992754;28;20105;-46
2023/08/08 11:56:06;;;;;;;13.15;4.00;;;29.50;99.90;;;;;;4992798;28;20045;-46
2023/08/08 11:58:32;;;;;;;12.88;4.07;;;29.50;99.90;;;;;;4992852;28;20034;-45
2023/08/08 12:00:58;;;;;;;18.05;4.30;;;29.50;99.90;;;;;;4992261;28;20054;-45
2023/08/08 12:03:26;;;;;;;27.13;4.15;;;29.50;99.90;;;;;;4992469;28;20415;-45
2023/08/08 12:05:52;;;;;;;15.60;3.88;;;29.50;99.90;;;;;;4992424;28;20120;-45
2023/08/08 12:08:19;;;;;;;14.13;4.05;;;29.50;99.90;;;;;;4992391;28;20022;-45
2023/08/08 12:10:51;;;;;;;;;;;29.50;99.90;;;;;;4992806;28;20023;-45
2023/08/08 12:13:21;;;;;;;25.33;6.97;;;29.50;99.90;;;;;;4992624;28;19905;-45
2023/08/08 12:15:47;;;;;;;20.98;7.20;;;29.50;99.90;;;;;;4992379;28;20089;-46
2023/08/08 12:18:17;;;;;;;16.00;5.55;;;29.50;99.90;;;;;;4974181;28;20030;-45
2023/08/08 12:20:44;;;;;;;14.85;4.93;;;29.50;99.90;;;;;;4977084;28;20510;-45
2023/08/08 12:23:10;;;;;;;14.15;3.45;;;29.50;99.90;;;;;;4985041;28;20482;-45
2023/08/08 12:25:36;;;;;;;11.95;5.63;;;29.50;99.90;;;;;;4988297;28;20039;-45
2023/08/08 12:28:02;;;;;;;14.15;6.03;;;29.50;99.90;;;;;;4993400;28;20053;-46
2023/08/08 12:30:28;;;;;;;16.77;4.90;;;29.60;99.90;;;;;;4996151;28;20033;-45
2023/08/08 12:32:54;;;;;;;15.65;4.88;;;29.50;99.90;;;;;;4995450;28;20034;-45
2023/08/08 12:35:20;;;;;;;18.00;4.78;;;29.60;99.90;;;;;;4996019;28;20382;-45